Terminal Aerodrome Forecast
Issued by NWS

Current Version | Previous Version | Graphics & Text | Print | Product List | Glossary Off
Versions: 1 2 3 4 5 6 7 8 9 10 11 12 13 14 15 16 17 18 19 20 21 22 23 24 25 26 27 28 29 30

000
FTUS41 KRNK 010528
TAFLWB
TAF
KLWB 010528Z 0106/0206 00000KT P6SM SCT040
     FM010800 17008KT P6SM BKN015
     FM011400 18011G24KT P6SM BKN040
     FM011700 19014G25KT P6SM SHRA VCTS OVC025CB
     FM011900 19012G22KT 4SM TSRA OVC020CB
     FM012200 21011G20KT P6SM BKN060
     FM020300 22007KT P6SM BKN045=

USA.gov is the U.S. government's official web portal to all federal, state and local government web resources and services.